Time;durP1;ratioP1;P1;durP2;ratioP2;P2;SDS_P1;SDS_P2;PMS_P1;PMS_P2;Temp;Humidity;BMP_temperature;BMP_pressure;BME280_temperature;BME280_humidity;BME280_pressure;Samples;Min_cycle;Max_cycle;Signal;HPM_P1;HPM_P2
2023/06/28 00:01:00;;;;;;;5.82;2.88;;;20.80;99.90;;;;;;5019441;28;20045;-64
2023/06/28 00:03:27;;;;;;;7.68;3.30;;;20.80;99.90;;;;;;5025075;28;20025;-65
2023/06/28 00:05:53;;;;;;;8.35;3.15;;;20.80;99.90;;;;;;5019999;28;20033;-64
2023/06/28 00:08:18;;;;;;;6.45;2.50;;;20.80;99.90;;;;;;5012579;28;20034;-65
2023/06/28 00:10:44;;;;;;;6.75;3.10;;;20.80;99.90;;;;;;5014659;28;20080;-65
2023/06/28 00:13:10;;;;;;;5.70;2.80;;;20.70;99.90;;;;;;5021236;28;20516;-64
2023/06/28 00:15:36;;;;;;;10.02;3.03;;;20.70;99.90;;;;;;5013308;28;20067;-64
2023/06/28 00:18:02;;;;;;;4.78;2.90;;;20.70;99.90;;;;;;5020236;28;20415;-66
2023/06/28 00:20:29;;;;;;;9.57;3.47;;;20.70;99.90;;;;;;5023677;28;20385;-64
2023/06/28 00:22:55;;;;;;;10.98;3.90;;;20.70;99.90;;;;;;5012762;28;20426;-64
2023/06/28 00:25:21;;;;;;;8.32;3.33;;;20.70;99.90;;;;;;5020191;28;20052;-65
2023/06/28 00:27:47;;;;;;;7.45;3.80;;;20.70;99.90;;;;;;5020989;28;20054;-65
2023/06/28 00:30:13;;;;;;;7.13;3.28;;;20.60;99.90;;;;;;5020611;28;20069;-65
2023/06/28 00:32:39;;;;;;;8.48;3.08;;;20.50;99.90;;;;;;5017338;28;20122;-65
2023/06/28 00:35:06;;;;;;;5.75;2.72;;;20.50;99.90;;;;;;5020373;28;20026;-65
2023/06/28 00:37:32;;;;;;;7.40;2.92;;;20.50;99.90;;;;;;5013534;28;20026;-64
2023/06/28 00:39:59;;;;;;;6.75;3.03;;;20.50;99.90;;;;;;5018617;28;20478;-65
2023/06/28 00:42:24;;;;;;;8.27;3.45;;;20.30;99.90;;;;;;5024658;28;20021;-65
2023/06/28 00:44:50;;;;;;;6.18;2.97;;;20.30;99.90;;;;;;5021626;28;20431;-64
2023/06/28 00:47:16;;;;;;;6.53;2.95;;;20.20;99.90;;;;;;5023467;28;20028;-64
2023/06/28 00:49:43;;;;;;;9.38;3.13;;;20.30;99.90;;;;;;5013693;28;20033;-64
2023/06/28 00:52:10;;;;;;;6.05;2.80;;;20.30;99.90;;;;;;5013631;28;20033;-64
2023/06/28 00:54:36;;;;;;;5.93;3.10;;;20.40;99.90;;;;;;5019035;28;20025;-65
2023/06/28 00:57:03;;;;;;;6.13;3.17;;;20.40;99.90;;;;;;5017872;28;20034;-64
2023/06/28 00:59:30;;;;;;;7.88;3.53;;;20.50;99.90;;;;;;5018933;28;20037;-65
2023/06/28 01:01:56;;;;;;;8.80;3.72;;;20.40;99.90;;;;;;5020161;28;20029;-65
2023/06/28 01:04:21;;;;;;;5.47;3.08;;;20.40;99.90;;;;;;5018634;28;20033;-65
2023/06/28 01:06:54;;;;;;;8.52;3.50;;;20.40;99.90;;;;;;5019773;28;20042;-64
2023/06/28 01:09:21;;;;;;;9.05;3.00;;;20.40;99.90;;;;;;5019932;28;20048;-65
2023/06/28 01:11:49;;;;;;;5.38;3.10;;;20.40;99.90;;;;;;5017706;28;20018;-64
2023/06/28 01:14:16;;;;;;;8.43;3.72;;;20.30;99.90;;;;;;5018097;28;20030;-64
2023/06/28 01:16:42;;;;;;;10.32;3.10;;;20.30;99.90;;;;;;5019362;28;20367;-64
2023/06/28 01:19:13;;;;;;;8.25;3.00;;;20.30;99.90;;;;;;5018088;28;20032;-64
2023/06/28 01:21:42;;;;;;;7.53;3.15;;;20.30;99.90;;;;;;5020290;28;20017;-65
2023/06/28 01:24:11;;;;;;;6.43;3.00;;;20.20;99.90;;;;;;5016360;28;20101;-64
2023/06/28 01:26:37;;;;;;;7.43;2.90;;;20.30;99.90;;;;;;5022521;28;20022;-64
2023/06/28 01:29:05;;;;;;;6.28;2.75;;;20.30;99.90;;;;;;5024486;28;20017;-65
2023/06/28 01:31:31;;;;;;;10.57;3.60;;;20.30;99.90;;;;;;5025009;28;20013;-64
2023/06/28 01:33:57;;;;;;;6.35;3.40;;;20.20;99.90;;;;;;5016541;28;20060;-64
2023/06/28 01:36:23;;;;;;;8.70;3.38;;;20.20;99.90;;;;;;5025500;28;20037;-65
2023/06/28 01:38:49;;;;;;;6.75;3.47;;;20.00;99.90;;;;;;5020581;28;20034;-64
2023/06/28 01:41:15;;;;;;;9.45;3.60;;;20.00;99.90;;;;;;5020757;28;20019;-64
2023/06/28 01:43:41;;;;;;;8.35;3.28;;;20.00;99.90;;;;;;5016329;28;20481;-64
2023/06/28 01:46:08;;;;;;;10.75;3.30;;;20.10;99.90;;;;;;5021077;28;20071;-65
2023/06/28 01:48:34;;;;;;;8.45;4.60;;;20.10;99.90;;;;;;5025220;28;20478;-64
2023/06/28 01:51:00;;;;;;;11.30;3.75;;;20.00;99.90;;;;;;5019781;28;20026;-65
2023/06/28 01:53:26;;;;;;;8.68;3.38;;;19.90;99.90;;;;;;5020420;28;20132;-65
2023/06/28 01:55:51;;;;;;;6.07;2.92;;;19.90;99.90;;;;;;5014316;28;20121;-65
2023/06/28 01:58:17;;;;;;;3.97;3.30;;;19.90;99.90;;;;;;5018442;28;20485;-64
2023/06/28 02:00:43;;;;;;;5.75;2.88;;;19.90;99.90;;;;;;5025461;28;20037;-65
2023/06/28 02:03:08;;;;;;;8.52;3.30;;;20.00;99.90;;;;;;5017068;28;20467;-64
2023/06/28 02:05:34;;;;;;;9.18;3.13;;;20.00;99.90;;;;;;5021331;28;20018;-64
2023/06/28 02:08:01;;;;;;;7.22;3.30;;;20.00;99.90;;;;;;5024273;28;20042;-65
2023/06/28 02:10:27;;;;;;;13.38;2.85;;;20.00;99.90;;;;;;5015923;28;20057;-64
2023/06/28 02:12:52;;;;;;;11.50;3.05;;;19.80;99.90;;;;;;5019785;28;20069;-64
2023/06/28 02:15:18;;;;;;;5.68;2.60;;;19.80;99.90;;;;;;5022462;28;20078;-65
2023/06/28 02:17:44;;;;;;;7.65;3.42;;;19.80;99.90;;;;;;5019616;28;20090;-64
2023/06/28 02:20:12;;;;;;;5.85;3.20;;;19.80;99.90;;;;;;5020444;28;20022;-65
2023/06/28 02:22:39;;;;;;;9.52;3.50;;;19.70;99.90;;;;;;5022255;28;20030;-65
2023/06/28 02:25:05;;;;;;;6.85;3.63;;;19.80;99.90;;;;;;5017925;28;20026;-65
2023/06/28 02:27:31;;;;;;;7.53;3.92;;;19.80;99.90;;;;;;5027423;28;20036;-66
2023/06/28 02:29:57;;;;;;;9.15;3.90;;;19.70;99.90;;;;;;5016517;28;20033;-65
2023/06/28 02:32:24;;;;;;;6.28;3.15;;;19.80;99.90;;;;;;5020000;28;20026;-65
2023/06/28 02:34:49;;;;;;;8.43;3.58;;;19.70;99.90;;;;;;5020734;28;20469;-65
2023/06/28 02:37:15;;;;;;;5.93;3.08;;;19.60;99.90;;;;;;5021748;28;20036;-67
2023/06/28 02:39:41;;;;;;;8.30;2.92;;;19.60;99.90;;;;;;5028160;28;20033;-64
2023/06/28 02:42:07;;;;;;;5.10;2.92;;;19.70;99.90;;;;;;5015332;28;20026;-64
2023/06/28 02:44:35;;;;;;;8.75;4.00;;;19.70;99.90;;;;;;5018781;28;20069;-65
2023/06/28 02:47:01;;;;;;;6.43;3.45;;;19.80;99.90;;;;;;5019849;28;20112;-65
2023/06/28 02:49:26;;;;;;;7.18;4.15;;;19.80;99.90;;;;;;5019238;28;20128;-65
2023/06/28 02:51:52;;;;;;;13.80;3.63;;;19.80;99.90;;;;;;5017251;28;20029;-65
2023/06/28 02:54:18;;;;;;;9.48;3.13;;;19.80;99.90;;;;;;5021850;28;20026;-64
2023/06/28 02:56:43;;;;;;;7.63;3.45;;;19.80;99.90;;;;;;5019041;28;20033;-64
2023/06/28 02:59:09;;;;;;;11.73;3.33;;;19.80;99.90;;;;;;5023754;28;20499;-65
2023/06/28 03:01:34;;;;;;;5.70;3.85;;;19.80;99.90;;;;;;5023387;28;20022;-66
2023/06/28 03:04:00;;;;;;;10.23;3.85;;;19.70;99.90;;;;;;5023967;28;20029;-68
2023/06/28 03:06:26;;;;;;;8.65;3.60;;;19.60;99.90;;;;;;5023001;28;20030;-66
2023/06/28 03:08:51;;;;;;;6.80;2.85;;;19.50;99.90;;;;;;5019383;28;20034;-66
2023/06/28 03:11:17;;;;;;;11.68;3.72;;;19.50;99.90;;;;;;5018436;28;20026;-65
2023/06/28 03:13:43;;;;;;;7.35;3.85;;;19.60;99.90;;;;;;5021162;28;20038;-65
2023/06/28 03:16:08;;;;;;;8.45;3.63;;;19.50;99.90;;;;;;5019870;28;20025;-65
2023/06/28 03:18:36;;;;;;;5.88;4.07;;;19.40;99.90;;;;;;5020614;28;20018;-65
2023/06/28 03:21:01;;;;;;;8.80;4.47;;;19.20;99.90;;;;;;5017912;28;20060;-66
2023/06/28 03:23:27;;;;;;;9.52;5.15;;;19.10;99.90;;;;;;5017986;28;20049;-66
2023/06/28 03:25:53;;;;;;;12.20;5.07;;;19.20;99.90;;;;;;5024695;28;20029;-66
2023/06/28 03:28:19;;;;;;;9.80;5.07;;;19.20;99.90;;;;;;5019533;28;20101;-66
2023/06/28 03:30:45;;;;;;;13.23;4.85;;;19.30;99.90;;;;;;5018730;28;20025;-67
2023/06/28 03:33:10;;;;;;;11.38;5.05;;;19.20;99.90;;;;;;5014651;28;20389;-66
2023/06/28 03:35:36;;;;;;;7.03;5.22;;;19.10;99.90;;;;;;5016879;28;20037;-67
2023/06/28 03:38:02;;;;;;;8.80;5.30;;;19.00;99.90;;;;;;5018770;28;20034;-66
2023/06/28 03:40:29;;;;;;;11.43;5.13;;;19.00;99.90;;;;;;5018026;28;20014;-66
2023/06/28 03:42:55;;;;;;;12.13;5.65;;;18.90;99.90;;;;;;5018791;28;20037;-66
2023/06/28 03:45:21;;;;;;;11.32;5.97;;;19.00;99.90;;;;;;5018938;28;20474;-66
2023/06/28 03:47:51;;;;;;;12.70;6.28;;;19.00;99.90;;;;;;5018803;28;20086;-65
2023/06/28 03:50:17;;;;;;;9.10;5.60;;;19.00;99.90;;;;;;5020296;28;20406;-66
2023/06/28 03:52:42;;;;;;;12.00;5.75;;;19.10;99.90;;;;;;5026563;28;20029;-65
2023/06/28 03:55:08;;;;;;;11.23;5.65;;;19.10;99.90;;;;;;5015702;28;20029;-68
2023/06/28 03:57:34;;;;;;;8.70;5.60;;;19.10;99.90;;;;;;5014858;28;20614;-67
2023/06/28 04:00:00;;;;;;;11.55;6.05;;;19.10;99.90;;;;;;5014503;28;20033;-66
2023/06/28 04:02:26;;;;;;;13.52;5.95;;;19.20;99.90;;;;;;5019663;28;20049;-66
2023/06/28 04:04:53;;;;;;;10.70;6.05;;;19.20;99.90;;;;;;5014905;28;20022;-66
2023/06/28 04:07:23;;;;;;;11.50;5.72;;;19.10;99.90;;;;;;5020006;28;20030;-66
2023/06/28 04:09:49;;;;;;;9.57;5.60;;;19.20;99.90;;;;;;5019206;28;20030;-66
2023/06/28 04:12:15;;;;;;;12.00;5.57;;;19.20;99.90;;;;;;5020756;28;20382;-66
2023/06/28 04:14:41;;;;;;;11.45;5.93;;;19.30;99.90;;;;;;5017018;28;20031;-65
2023/06/28 04:17:06;;;;;;;9.70;6.03;;;19.20;99.90;;;;;;5021542;28;20466;-66
2023/06/28 04:19:32;;;;;;;8.75;6.40;;;19.10;99.90;;;;;;5021043;28;20041;-66
2023/06/28 04:21:59;;;;;;;12.23;5.97;;;18.80;99.90;;;;;;5019403;28;20033;-66
2023/06/28 04:24:25;;;;;;;11.40;6.50;;;18.80;99.90;;;;;;5022560;28;20030;-69
2023/06/28 04:26:50;;;;;;;11.65;6.75;;;18.80;99.90;;;;;;5016509;28;20078;-66
2023/06/28 04:29:16;;;;;;;8.93;5.88;;;18.80;99.90;;;;;;5018434;28;20116;-66
2023/06/28 04:31:42;;;;;;;14.35;7.05;;;18.80;99.90;;;;;;5018767;28;20037;-66
2023/06/28 04:34:07;;;;;;;14.57;7.03;;;18.80;99.90;;;;;;5020681;28;20038;-66
2023/06/28 04:36:33;;;;;;;13.25;6.57;;;18.70;99.90;;;;;;5016780;28;20029;-65
2023/06/28 04:38:59;;;;;;;14.77;8.07;;;18.60;99.90;;;;;;5019191;28;20037;-65
2023/06/28 04:41:25;;;;;;;13.05;7.18;;;18.60;99.90;;;;;;5022569;28;20018;-65
2023/06/28 04:43:57;;;;;;;10.95;6.45;;;18.60;99.90;;;;;;5023629;28;20036;-64
2023/06/28 04:46:29;;;;;;;12.73;7.22;;;18.50;99.90;;;;;;5025411;28;20028;-66
2023/06/28 04:48:56;;;;;;;11.60;7.22;;;18.50;99.90;;;;;;5017396;28;20025;-65
2023/06/28 04:51:22;;;;;;;13.43;6.65;;;18.50;99.90;;;;;;5016627;28;20018;-65
2023/06/28 04:53:49;;;;;;;15.05;6.68;;;18.50;99.90;;;;;;5018958;28;20393;-64
2023/06/28 04:56:15;;;;;;;12.60;7.10;;;18.50;99.90;;;;;;5016385;28;20045;-65
2023/06/28 04:58:41;;;;;;;11.65;6.78;;;18.60;99.90;;;;;;5016009;28;20036;-65
2023/06/28 05:01:08;;;;;;;11.50;6.63;;;18.60;99.90;;;;;;5020218;28;20022;-66
2023/06/28 05:03:38;;;;;;;15.20;7.82;;;18.70;99.90;;;;;;5017175;28;20021;-65
2023/06/28 05:06:08;;;;;;;12.32;7.65;;;18.70;99.90;;;;;;5018375;28;20548;-65
2023/06/28 05:08:34;;;;;;;14.25;6.78;;;18.70;99.90;;;;;;5015764;28;20438;-65
2023/06/28 05:11:01;;;;;;;11.88;7.85;;;18.60;99.90;;;;;;5018415;28;20029;-65
2023/06/28 05:13:26;;;;;;;12.75;7.88;;;18.40;99.90;;;;;;5021459;28;20043;-64
2023/06/28 05:15:52;;;;;;;11.15;7.28;;;18.60;99.90;;;;;;5016846;28;20077;-65
2023/06/28 05:18:19;;;;;;;12.00;6.82;;;18.30;99.90;;;;;;5016596;28;20079;-65
2023/06/28 05:20:45;;;;;;;11.80;6.88;;;18.50;99.90;;;;;;5016901;28;20474;-65
2023/06/28 05:23:11;;;;;;;13.68;7.20;;;18.40;99.90;;;;;;5018326;28;20025;-65
2023/06/28 05:25:38;;;;;;;12.02;6.97;;;18.40;99.90;;;;;;5013900;28;20480;-65
2023/06/28 05:28:05;;;;;;;17.40;7.68;;;18.50;99.90;;;;;;5011176;28;20049;-65
2023/06/28 05:30:31;;;;;;;13.75;7.50;;;18.60;99.90;;;;;;5021293;28;20087;-65
2023/06/28 05:32:58;;;;;;;15.52;7.70;;;18.70;99.90;;;;;;5021356;28;20061;-66
2023/06/28 05:35:24;;;;;;;13.65;7.68;;;18.90;99.90;;;;;;5017123;28;20382;-65
2023/06/28 05:37:50;;;;;;;11.60;7.93;;;18.90;99.90;;;;;;5017680;28;20478;-66
2023/06/28 05:40:15;;;;;;;12.07;8.05;;;18.90;99.90;;;;;;5016957;28;20021;-66
2023/06/28 05:42:41;;;;;;;13.02;7.47;;;18.80;99.90;;;;;;5021481;28;20018;-66
2023/06/28 05:45:08;;;;;;;15.27;8.38;;;18.80;99.90;;;;;;5021672;28;20034;-65
2023/06/28 05:47:33;;;;;;;13.45;7.70;;;18.80;99.90;;;;;;5018435;28;20379;-65
2023/06/28 05:49:59;;;;;;;14.73;8.07;;;18.80;99.90;;;;;;5018459;28;20476;-65
2023/06/28 05:52:25;;;;;;;16.55;8.65;;;18.90;99.90;;;;;;5017781;28;20038;-65
2023/06/28 05:54:50;;;;;;;18.33;8.32;;;18.80;99.90;;;;;;5015992;28;20083;-65
2023/06/28 05:57:16;;;;;;;13.57;8.98;;;18.80;99.90;;;;;;5021552;28;20032;-66
2023/06/28 05:59:42;;;;;;;13.57;9.25;;;18.90;99.90;;;;;;5014794;28;20030;-65
2023/06/28 06:02:07;;;;;;;16.65;8.07;;;18.90;99.90;;;;;;5018258;28;20845;-65
2023/06/28 06:04:33;;;;;;;13.38;8.57;;;19.00;99.90;;;;;;5020714;28;20026;-65
2023/06/28 06:06:59;;;;;;;14.80;8.90;;;19.00;99.90;;;;;;5024136;28;20029;-65
2023/06/28 06:09:26;;;;;;;16.35;9.27;;;19.10;99.90;;;;;;5016901;28;20040;-65
2023/06/28 06:11:51;;;;;;;14.68;7.68;;;19.10;99.90;;;;;;5017557;28;20017;-65
2023/06/28 06:14:17;;;;;;;12.32;8.38;;;19.00;99.90;;;;;;5019219;28;20103;-65
2023/06/28 06:16:42;;;;;;;16.20;8.57;;;19.10;99.90;;;;;;5016898;28;20073;-65
2023/06/28 06:19:08;;;;;;;15.68;8.05;;;19.20;99.90;;;;;;5017040;28;20091;-65
2023/06/28 06:21:34;;;;;;;8.52;6.93;;;19.20;99.90;;;;;;5019790;28;20021;-65
2023/06/28 06:24:01;;;;;;;11.02;7.35;;;19.10;99.90;;;;;;5020815;28;20058;-65
2023/06/28 06:26:27;;;;;;;15.52;7.32;;;19.10;99.90;;;;;;5022144;28;20022;-65
2023/06/28 06:28:53;;;;;;;11.80;7.38;;;19.00;99.90;;;;;;5024216;28;20033;-67
2023/06/28 06:31:19;;;;;;;10.18;6.88;;;19.00;99.90;;;;;;5020206;28;20397;-65
2023/06/28 06:33:44;;;;;;;11.05;6.55;;;19.00;99.90;;;;;;5020817;28;20038;-66
2023/06/28 06:36:10;;;;;;;12.80;7.03;;;19.00;99.90;;;;;;5021112;28;20053;-66
2023/06/28 06:38:37;;;;;;;11.90;6.65;;;19.00;99.90;;;;;;5020368;28;20034;-65
2023/06/28 06:41:03;;;;;;;9.80;6.13;;;19.00;99.90;;;;;;5022281;28;20025;-65
2023/06/28 06:43:29;;;;;;;13.82;6.82;;;19.00;99.90;;;;;;5021958;28;20032;-65
2023/06/28 06:45:54;;;;;;;10.05;6.68;;;19.10;99.90;;;;;;5020493;28;20026;-65
2023/06/28 06:48:20;;;;;;;11.25;6.88;;;19.00;99.90;;;;;;5017756;28;20049;-65
2023/06/28 06:50:46;;;;;;;11.98;7.07;;;19.00;99.90;;;;;;5016230;28;20026;-65
2023/06/28 06:53:11;;;;;;;17.67;7.32;;;19.00;99.90;;;;;;5025199;28;20371;-66
2023/06/28 06:55:37;;;;;;;9.98;6.32;;;19.10;99.90;;;;;;5016472;28;20112;-65
2023/06/28 06:58:03;;;;;;;10.88;6.10;;;19.10;99.90;;;;;;5020423;28;20025;-65
2023/06/28 07:00:29;;;;;;;10.95;7.05;;;19.10;99.90;;;;;;5024138;28;20014;-66
2023/06/28 07:02:54;;;;;;;12.35;6.93;;;19.10;99.90;;;;;;5023527;28;20108;-65
2023/06/28 07:05:20;;;;;;;12.75;7.07;;;19.20;99.90;;;;;;5021598;28;20530;-66
2023/06/28 07:07:45;;;;;;;11.50;7.22;;;19.10;99.90;;;;;;5020274;28;20034;-64
2023/06/28 07:10:11;;;;;;;15.20;6.85;;;19.00;99.90;;;;;;5021689;28;20060;-65
2023/06/28 07:12:37;;;;;;;9.68;6.65;;;19.10;99.90;;;;;;5016694;28;20050;-65
2023/06/28 07:15:03;;;;;;;11.35;6.65;;;19.20;99.90;;;;;;5021746;28;20105;-66
2023/06/28 07:17:30;;;;;;;13.88;7.25;;;19.20;99.90;;;;;;5021817;28;20022;-68
2023/06/28 07:19:56;;;;;;;8.63;5.95;;;19.30;99.90;;;;;;5018158;28;20056;-65
2023/06/28 07:22:22;;;;;;;10.20;6.60;;;19.30;99.90;;;;;;5016197;28;20053;-66
2023/06/28 07:24:47;;;;;;;12.25;6.63;;;19.40;99.90;;;;;;5029426;28;20022;-65
2023/06/28 07:27:13;;;;;;;12.48;6.10;;;19.40;99.90;;;;;;5024174;28;20033;-65
2023/06/28 07:29:39;;;;;;;11.70;6.57;;;19.60;99.90;;;;;;5028126;28;20966;-65
2023/06/28 07:32:05;;;;;;;11.05;6.70;;;19.70;99.90;;;;;;5016107;28;20514;-64
2023/06/28 07:34:30;;;;;;;11.23;7.18;;;19.40;99.90;;;;;;5017292;28;20105;-65
2023/06/28 07:36:56;;;;;;;10.05;6.60;;;19.40;99.90;;;;;;5024736;28;20105;-64
2023/06/28 07:39:22;;;;;;;10.43;6.22;;;19.20;99.90;;;;;;5016913;28;20035;-66
2023/06/28 07:41:47;;;;;;;11.50;6.35;;;19.40;99.90;;;;;;5020448;28;20033;-67
2023/06/28 07:44:13;;;;;;;10.57;6.55;;;19.40;99.90;;;;;;5023457;28;20030;-65
2023/06/28 07:46:39;;;;;;;14.00;7.20;;;19.40;99.90;;;;;;5012465;28;20386;-65
2023/06/28 07:49:04;;;;;;;11.75;6.30;;;19.40;99.90;;;;;;5015099;28;20061;-65
2023/06/28 07:51:30;;;;;;;8.55;5.95;;;19.30;99.90;;;;;;5019588;28;20041;-65
2023/06/28 07:53:55;;;;;;;8.73;6.00;;;19.30;99.90;;;;;;5022060;28;20030;-65
2023/06/28 07:56:21;;;;;;;8.82;5.93;;;19.30;99.90;;;;;;5019111;28;20026;-66
2023/06/28 07:58:48;;;;;;;9.70;5.70;;;19.40;99.90;;;;;;5021786;28;20022;-66
2023/06/28 08:01:15;;;;;;;11.13;7.43;;;19.50;99.90;;;;;;5014686;28;20516;-64
2023/06/28 08:03:40;;;;;;;13.75;7.45;;;19.40;99.90;;;;;;5019845;28;20029;-65
2023/06/28 08:06:06;;;;;;;14.30;7.90;;;19.30;99.90;;;;;;5020408;28;20032;-68
2023/06/28 08:08:32;;;;;;;16.38;6.70;;;19.40;99.90;;;;;;5021930;28;20557;-66
2023/06/28 08:10:57;;;;;;;14.23;6.28;;;19.40;99.90;;;;;;5054519;27;20524;-65
2023/06/28 08:13:23;;;;;;;11.05;6.72;;;19.40;99.90;;;;;;5042981;27;20401;-65
2023/06/28 08:15:49;;;;;;;12.07;7.00;;;19.50;99.90;;;;;;5027219;28;20085;-65
2023/06/28 08:18:16;;;;;;;10.18;6.22;;;19.60;99.90;;;;;;5019919;28;20104;-65
2023/06/28 08:20:44;;;;;;;13.32;5.60;;;19.70;99.90;;;;;;5019511;28;20028;-65
2023/06/28 08:23:10;;;;;;;11.27;7.43;;;19.80;99.90;;;;;;5019932;28;20038;-66
2023/06/28 08:25:36;;;;;;;15.85;5.43;;;19.80;99.90;;;;;;5023997;28;20013;-65
2023/06/28 08:28:02;;;;;;;15.50;6.25;;;19.90;99.90;;;;;;5026108;28;20032;-68
2023/06/28 08:30:27;;;;;;;10.25;5.82;;;20.00;99.90;;;;;;5025034;28;20026;-65
2023/06/28 08:32:53;;;;;;;11.25;5.30;;;20.00;99.90;;;;;;5017688;28;20390;-66
2023/06/28 08:35:19;;;;;;;10.52;4.90;;;20.00;99.90;;;;;;5022782;28;20018;-65
2023/06/28 08:37:44;;;;;;;10.65;4.00;;;20.10;99.90;;;;;;5025581;28;20048;-66
2023/06/28 08:40:10;;;;;;;7.18;4.43;;;20.00;99.90;;;;;;5015505;28;20491;-65
2023/06/28 08:42:39;;;;;;;13.13;4.70;;;20.00;99.90;;;;;;5016421;28;20026;-67
2023/06/28 08:45:05;;;;;;;12.73;3.70;;;20.00;99.90;;;;;;5024573;28;20112;-67
2023/06/28 08:47:32;;;;;;;9.27;4.18;;;20.00;99.90;;;;;;5020633;28;20014;-67
2023/06/28 08:49:59;;;;;;;8.43;3.75;;;20.10;99.90;;;;;;5019214;28;20014;-66
2023/06/28 08:52:26;;;;;;;7.72;2.90;;;20.00;99.90;;;;;;5019039;28;20041;-66
2023/06/28 08:54:52;;;;;;;8.77;3.72;;;20.00;99.90;;;;;;5021848;28;20057;-68
2023/06/28 08:57:19;;;;;;;11.75;3.97;;;20.00;99.90;;;;;;5016661;28;20450;-68
2023/06/28 08:59:45;;;;;;;7.18;3.33;;;20.00;99.90;;;;;;5023390;28;20030;-65
2023/06/28 09:02:15;;;;;;;9.65;4.30;;;20.10;99.90;;;;;;5021557;28;20022;-66
2023/06/28 09:04:41;;;;;;;9.30;4.47;;;20.20;99.90;;;;;;5025312;28;20592;-66
2023/06/28 09:07:07;;;;;;;14.27;4.85;;;20.40;99.90;;;;;;5024385;28;20053;-67
2023/06/28 09:09:35;;;;;;;13.23;4.30;;;20.30;99.90;;;;;;5017600;28;20025;-67
2023/06/28 09:12:01;;;;;;;11.40;4.57;;;20.40;99.90;;;;;;5016019;28;20025;-67
2023/06/28 09:14:28;;;;;;;9.30;4.00;;;20.50;99.90;;;;;;5019998;28;20042;-69
2023/06/28 09:16:54;;;;;;;11.73;4.25;;;20.80;99.90;;;;;;5020061;28;20097;-66
2023/06/28 09:19:20;;;;;;;8.73;4.00;;;21.00;99.90;;;;;;5015408;28;20506;-65
2023/06/28 09:21:46;;;;;;;8.32;4.05;;;21.10;99.90;;;;;;5021451;28;20018;-68
2023/06/28 09:24:12;;;;;;;7.25;4.65;;;21.10;99.90;;;;;;5017302;28;20029;-70
2023/06/28 09:26:40;;;;;;;12.27;4.78;;;21.30;99.90;;;;;;5020217;28;20121;-65
2023/06/28 09:29:10;;;;;;;11.23;4.32;;;21.20;99.90;;;;;;5015799;28;20018;-69
2023/06/28 09:31:54;;;;;;;9.13;3.97;;;21.30;99.90;;;;;;5021325;28;20059;-68
2023/06/28 09:34:23;;;;;;;7.72;4.00;;;21.40;99.90;;;;;;5015297;28;20033;-66
2023/06/28 09:36:56;;;;;;;9.43;4.07;;;21.50;99.90;;;;;;5018460;28;20032;-68
2023/06/28 09:39:22;;;;;;;13.55;3.90;;;21.60;99.90;;;;;;5019027;28;20102;-69
2023/06/28 09:41:49;;;;;;;9.35;3.95;;;21.60;99.90;;;;;;5018365;28;20494;-72
2023/06/28 09:44:28;;;;;;;10.07;4.32;;;21.80;99.90;;;;;;5018860;28;20654;-71
2023/06/28 09:47:00;;;;;;;7.72;4.15;;;21.90;99.90;;;;;;5018110;28;20025;-68
2023/06/28 09:49:26;;;;;;;9.20;4.00;;;22.10;99.90;;;;;;5023126;28;20010;-68
2023/06/28 09:52:04;;;;;;;8.88;4.78;;;22.10;99.90;;;;;;5021601;28;20053;-72
2023/06/28 09:54:35;;;;;;;12.75;4.55;;;22.20;99.90;;;;;;5021468;28;20041;-68
2023/06/28 09:57:02;;;;;;;9.52;3.88;;;22.30;99.90;;;;;;5026983;28;20014;-68
2023/06/28 09:59:32;;;;;;;11.25;3.95;;;22.50;99.90;;;;;;5038988;28;20025;-67
2023/06/28 10:02:01;;;;;;;6.35;3.40;;;22.50;99.90;;;;;;5024126;28;20090;-67
2023/06/28 10:04:28;;;;;;;12.63;3.88;;;22.40;99.90;;;;;;5023202;28;20018;-69
2023/06/28 10:07:04;;;;;;;10.23;4.50;;;22.30;99.90;;;;;;5028237;28;20091;-65
2023/06/28 10:09:37;;;;;;;10.45;3.63;;;22.30;99.90;;;;;;5023012;28;20014;-66
2023/06/28 10:12:18;;;;;;;9.60;3.72;;;22.20;99.90;;;;;;5017058;28;20108;-65
2023/06/28 10:15:06;;;;;;;7.45;3.65;;;22.10;99.90;;;;;;5020415;28;20025;-65
2023/06/28 10:17:35;;;;;;;8.95;3.63;;;22.40;99.90;;;;;;5019813;28;20024;-65
2023/06/28 10:20:03;;;;;;;9.25;3.70;;;22.70;99.90;;;;;;5024892;28;20018;-67
2023/06/28 10:22:29;;;;;;;9.27;3.45;;;22.70;99.90;;;;;;5024573;28;20029;-65
2023/06/28 10:24:56;;;;;;;10.57;3.65;;;22.80;99.90;;;;;;5016700;28;20082;-66
2023/06/28 10:27:23;;;;;;;11.82;3.65;;;22.80;99.90;;;;;;5018901;28;20528;-65
2023/06/28 10:29:50;;;;;;;8.25;4.13;;;23.00;99.90;;;;;;5018543;28;20024;-68
2023/06/28 10:32:16;;;;;;;8.50;3.42;;;23.10;99.90;;;;;;5020191;28;20030;-67
2023/06/28 10:34:45;;;;;;;5.15;2.97;;;23.20;99.90;;;;;;5023350;28;20042;-66
2023/06/28 10:37:12;;;;;;;9.02;3.70;;;23.60;99.90;;;;;;5020190;28;20075;-66
2023/06/28 10:39:38;;;;;;;13.05;3.65;;;23.90;99.90;;;;;;5018605;28;20033;-66
2023/06/28 10:42:05;;;;;;;8.95;3.90;;;24.00;99.90;;;;;;5020791;28;20105;-69
2023/06/28 10:44:31;;;;;;;8.52;3.95;;;24.40;99.90;;;;;;5024701;28;20018;-69
2023/06/28 10:47:13;;;;;;;9.88;3.88;;;24.60;99.90;;;;;;5015900;28;20129;-70
2023/06/28 10:49:43;;;;;;;7.35;3.15;;;24.10;99.90;;;;;;5025830;28;20101;-66
2023/06/28 10:52:16;;;;;;;5.85;3.25;;;24.20;99.90;;;;;;5028823;28;20454;-71
2023/06/28 10:54:42;;;;;;;7.25;3.63;;;24.30;99.90;;;;;;5021951;28;20017;-68
2023/06/28 10:57:09;;;;;;;6.57;3.75;;;24.30;99.90;;;;;;5021825;28;20025;-68
2023/06/28 10:59:42;;;;;;;7.38;3.63;;;24.10;99.90;;;;;;5020767;28;20032;-69
2023/06/28 11:02:07;;;;;;;10.82;3.22;;;24.10;99.90;;;;;;5019097;28;20030;-67
2023/06/28 11:04:33;;;;;;;6.63;2.90;;;24.10;99.90;;;;;;5024417;28;20535;-71
2023/06/28 11:07:15;;;;;;;8.43;3.17;;;24.20;99.90;;;;;;5018039;28;20049;-69
2023/06/28 11:10:16;;;;;;;6.63;3.33;;;24.40;99.90;;;;;;5020570;28;20053;-66
2023/06/28 11:12:47;;;;;;;6.30;2.92;;;24.60;99.90;;;;;;5027584;28;20030;-67
2023/06/28 11:15:13;;;;;;;6.32;3.35;;;24.60;99.90;;;;;;5021011;28;20041;-67
2023/06/28 11:17:39;;;;;;;7.28;3.53;;;24.40;99.90;;;;;;5021003;28;20026;-67
2023/06/28 11:20:13;;;;;;;5.25;3.03;;;24.40;99.90;;;;;;5020431;28;20101;-68
2023/06/28 11:22:52;;;;;;;6.47;3.63;;;24.50;99.90;;;;;;5017345;28;20631;-71
2023/06/28 11:25:27;;;;;;;6.65;2.92;;;24.40;99.90;;;;;;5019821;28;20029;-68
2023/06/28 11:27:53;;;;;;;8.23;3.50;;;24.40;99.90;;;;;;5018422;28;20037;-68
2023/06/28 11:30:20;;;;;;;7.30;3.83;;;24.50;99.90;;;;;;5019593;28;20030;-70
2023/06/28 11:32:46;;;;;;;8.80;3.63;;;24.40;99.90;;;;;;5022027;28;20394;-67
2023/06/28 11:35:12;;;;;;;10.63;3.75;;;24.30;99.90;;;;;;5016459;28;20432;-67
2023/06/28 11:37:39;;;;;;;6.93;3.47;;;24.50;99.90;;;;;;5014208;28;20034;-67
2023/06/28 11:40:05;;;;;;;5.75;3.75;;;24.30;99.90;;;;;;5023894;28;20089;-67
2023/06/28 11:42:31;;;;;;;13.48;4.32;;;24.50;99.90;;;;;;5022976;28;20033;-69
2023/06/28 11:44:57;;;;;;;13.30;3.80;;;24.80;99.90;;;;;;5021284;28;20022;-68
2023/06/28 11:47:23;;;;;;;10.73;4.03;;;24.90;99.90;;;;;;5021744;28;20156;-67
2023/06/28 11:49:49;;;;;;;9.65;4.75;;;25.20;99.90;;;;;;5017619;28;20504;-68
2023/06/28 11:52:16;;;;;;;11.35;4.13;;;25.30;99.90;;;;;;5014588;28;20109;-69
2023/06/28 11:54:43;;;;;;;11.45;3.75;;;25.40;99.90;;;;;;5021394;28;20390;-68
2023/06/28 11:57:09;;;;;;;8.00;3.53;;;25.30;99.90;;;;;;5027642;28;20026;-69
2023/06/28 11:59:36;;;;;;;10.15;3.83;;;25.20;99.90;;;;;;5023709;28;20026;-68
2023/06/28 12:02:06;;;;;;;6.03;3.90;;;25.30;99.90;;;;;;5027801;28;20028;-67
2023/06/28 12:04:37;;;;;;;9.25;3.83;;;25.30;99.90;;;;;;5018527;28;20022;-67
2023/06/28 12:07:04;;;;;;;7.57;5.00;;;25.60;99.90;;;;;;5020248;28;20054;-68
2023/06/28 12:09:33;;;;;;;8.13;4.70;;;26.00;99.90;;;;;;5025394;28;20101;-72
2023/06/28 12:12:02;;;;;;;9.20;4.65;;;26.30;99.90;;;;;;5019886;28;20029;-66
2023/06/28 12:14:30;;;;;;;10.25;5.70;;;26.40;99.90;;;;;;5018328;28;20042;-66
2023/06/28 12:16:57;;;;;;;12.68;6.97;;;26.20;99.90;;;;;;5016726;28;20046;-66
2023/06/28 12:19:35;;;;;;;11.65;6.95;;;26.20;99.90;;;;;;5025618;28;20027;-66
2023/06/28 12:22:05;;;;;;;10.93;6.50;;;26.50;99.90;;;;;;5017593;28;20029;-66
2023/06/28 12:24:34;;;;;;;15.18;6.53;;;26.50;99.90;;;;;;5019180;28;20025;-66
2023/06/28 12:27:05;;;;;;;11.68;6.32;;;26.40;99.90;;;;;;5025542;28;20021;-66
2023/06/28 12:29:36;;;;;;;10.43;6.60;;;26.50;99.90;;;;;;5019653;28;20064;-67
2023/06/28 12:32:11;;;;;;;10.90;5.82;;;26.50;99.90;;;;;;5013412;28;20018;-66
2023/06/28 12:34:38;;;;;;;12.90;6.20;;;26.50;99.90;;;;;;5018850;28;20534;-67
2023/06/28 12:37:08;;;;;;;12.48;6.50;;;26.50;99.90;;;;;;5018927;28;20026;-66
2023/06/28 12:39:36;;;;;;;11.63;7.13;;;26.60;99.90;;;;;;5019213;28;20038;-67